sensor_id;sensor_type;location;lat;lon;timestamp;temperature;humidity
16285;DHT22;8250;52.426;9.450;2022-07-05T00:01:09;17.60;99.90
16285;DHT22;8250;52.426;9.450;2022-07-05T00:03:36;17.60;99.90
16285;DHT22;8250;52.426;9.450;2022-07-05T00:06:05;17.60;99.90
16285;DHT22;8250;52.426;9.450;2022-07-05T00:08:32;17.50;99.90
16285;DHT22;8250;52.426;9.450;2022-07-05T00:10:59;17.50;99.90
16285;DHT22;8250;52.426;9.450;2022-07-05T00:13:26;17.50;99.90
16285;DHT22;8250;52.426;9.450;2022-07-05T00:15:52;17.50;99.90
16285;DHT22;8250;52.426;9.450;2022-07-05T00:18:19;17.50;99.90
16285;DHT22;8250;52.426;9.450;2022-07-05T00:20:46;17.40;99.90
16285;DHT22;8250;52.426;9.450;2022-07-05T00:23:14;17.40;99.90
16285;DHT22;8250;52.426;9.450;2022-07-05T00:25:41;17.40;99.90
16285;DHT22;8250;52.426;9.450;2022-07-05T00:28:08;17.40;99.90
16285;DHT22;8250;52.426;9.450;2022-07-05T00:30:36;17.30;99.90
16285;DHT22;8250;52.426;9.450;2022-07-05T00:33:03;17.20;99.90
16285;DHT22;8250;52.426;9.450;2022-07-05T00:35:30;17.20;99.90
16285;DHT22;8250;52.426;9.450;2022-07-05T00:37:56;17.20;99.90
16285;DHT22;8250;52.426;9.450;2022-07-05T00:40:25;17.20;99.90
16285;DHT22;8250;52.426;9.450;2022-07-05T00:42:52;17.10;99.90
16285;DHT22;8250;52.426;9.450;2022-07-05T00:45:18;17.10;99.90
16285;DHT22;8250;52.426;9.450;2022-07-05T00:47:46;17.10;99.90
16285;DHT22;8250;52.426;9.450;2022-07-05T00:50:13;17.00;99.90
16285;DHT22;8250;52.426;9.450;2022-07-05T00:52:40;17.00;99.90
16285;DHT22;8250;52.426;9.450;2022-07-05T00:55:08;17.00;99.90
16285;DHT22;8250;52.426;9.450;2022-07-05T00:57:37;17.00;99.90
16285;DHT22;8250;52.426;9.450;2022-07-05T01:00:05;16.90;99.90
16285;DHT22;8250;52.426;9.450;2022-07-05T01:02:32;16.90;99.90
16285;DHT22;8250;52.426;9.450;2022-07-05T01:04:59;16.90;99.90
16285;DHT22;8250;52.426;9.450;2022-07-05T01:07:26;16.80;99.90
16285;DHT22;8250;52.426;9.450;2022-07-05T01:09:54;16.80;99.90
16285;DHT22;8250;52.426;9.450;2022-07-05T01:12:22;16.80;99.90
16285;DHT22;8250;52.426;9.450;2022-07-05T01:14:50;16.70;99.90
16285;DHT22;8250;52.426;9.450;2022-07-05T01:17:17;16.70;99.90
16285;DHT22;8250;52.426;9.450;2022-07-05T01:19:44;16.70;99.90
16285;DHT22;8250;52.426;9.450;2022-07-05T01:22:16;16.70;99.90
16285;DHT22;8250;52.426;9.450;2022-07-05T01:24:45;16.70;99.90
16285;DHT22;8250;52.426;9.450;2022-07-05T01:27:12;16.60;99.90
16285;DHT22;8250;52.426;9.450;2022-07-05T01:29:40;16.70;99.90
16285;DHT22;8250;52.426;9.450;2022-07-05T01:32:07;16.60;99.90
16285;DHT22;8250;52.426;9.450;2022-07-05T01:34:37;16.60;99.90
16285;DHT22;8250;52.426;9.450;2022-07-05T01:37:04;16.50;99.90
16285;DHT22;8250;52.426;9.450;2022-07-05T01:39:32;16.60;99.90
16285;DHT22;8250;52.426;9.450;2022-07-05T01:42:00;16.50;99.90
16285;DHT22;8250;52.426;9.450;2022-07-05T01:44:28;16.50;99.90
16285;DHT22;8250;52.426;9.450;2022-07-05T01:46:59;16.50;99.90
16285;DHT22;8250;52.426;9.450;2022-07-05T01:49:31;16.50;99.90
16285;DHT22;8250;52.426;9.450;2022-07-05T01:52:02;16.40;99.90
16285;DHT22;8250;52.426;9.450;2022-07-05T01:54:30;16.40;99.90
16285;DHT22;8250;52.426;9.450;2022-07-05T01:56:59;16.40;99.90
16285;DHT22;8250;52.426;9.450;2022-07-05T01:59:27;16.40;99.90
16285;DHT22;8250;52.426;9.450;2022-07-05T02:01:54;16.40;99.90
16285;DHT22;8250;52.426;9.450;2022-07-05T02:04:22;16.40;99.90
16285;DHT22;8250;52.426;9.450;2022-07-05T02:06:49;16.40;99.90
16285;DHT22;8250;52.426;9.450;2022-07-05T02:09:16;16.40;99.90
16285;DHT22;8250;52.426;9.450;2022-07-05T02:11:42;16.30;99.90
16285;DHT22;8250;52.426;9.450;2022-07-05T02:14:11;16.30;99.90
16285;DHT22;8250;52.426;9.450;2022-07-05T02:16:38;16.30;99.90
16285;DHT22;8250;52.426;9.450;2022-07-05T02:19:05;16.30;99.90
16285;DHT22;8250;52.426;9.450;2022-07-05T02:21:32;16.30;99.90
16285;DHT22;8250;52.426;9.450;2022-07-05T02:23:59;16.30;99.90
16285;DHT22;8250;52.426;9.450;2022-07-05T02:26:25;16.30;99.90
16285;DHT22;8250;52.426;9.450;2022-07-05T02:28:53;16.30;99.90
16285;DHT22;8250;52.426;9.450;2022-07-05T02:31:21;16.20;99.90
16285;DHT22;8250;52.426;9.450;2022-07-05T02:33:48;16.20;99.90
16285;DHT22;8250;52.426;9.450;2022-07-05T02:36:15;16.20;99.90
16285;DHT22;8250;52.426;9.450;2022-07-05T02:38:42;16.20;99.90
16285;DHT22;8250;52.426;9.450;2022-07-05T02:41:09;16.20;99.90
16285;DHT22;8250;52.426;9.450;2022-07-05T02:43:37;16.30;99.90
16285;DHT22;8250;52.426;9.450;2022-07-05T02:46:05;16.30;99.90
16285;DHT22;8250;52.426;9.450;2022-07-05T02:48:35;16.30;99.90
16285;DHT22;8250;52.426;9.450;2022-07-05T02:51:02;16.30;99.90
16285;DHT22;8250;52.426;9.450;2022-07-05T02:53:29;16.30;99.90
16285;DHT22;8250;52.426;9.450;2022-07-05T02:55:56;16.30;99.90
16285;DHT22;8250;52.426;9.450;2022-07-05T02:58:23;16.30;99.90
16285;DHT22;8250;52.426;9.450;2022-07-05T03:00:50;16.30;99.90
16285;DHT22;8250;52.426;9.450;2022-07-05T03:03:17;16.30;99.90
16285;DHT22;8250;52.426;9.450;2022-07-05T03:05:45;16.40;99.90
16285;DHT22;8250;52.426;9.450;2022-07-05T03:08:12;16.40;99.90
16285;DHT22;8250;52.426;9.450;2022-07-05T03:10:39;16.40;99.90
16285;DHT22;8250;52.426;9.450;2022-07-05T03:13:06;16.40;99.90
16285;DHT22;8250;52.426;9.450;2022-07-05T03:15:33;16.40;99.90
16285;DHT22;8250;52.426;9.450;2022-07-05T03:18:00;16.30;99.90
16285;DHT22;8250;52.426;9.450;2022-07-05T03:20:27;16.30;99.90
16285;DHT22;8250;52.426;9.450;2022-07-05T03:22:55;16.30;99.90
16285;DHT22;8250;52.426;9.450;2022-07-05T03:25:22;16.30;99.90
16285;DHT22;8250;52.426;9.450;2022-07-05T03:27:49;16.30;99.90
16285;DHT22;8250;52.426;9.450;2022-07-05T03:30:16;16.20;99.90
16285;DHT22;8250;52.426;9.450;2022-07-05T03:32:43;16.20;99.90
16285;DHT22;8250;52.426;9.450;2022-07-05T03:35:09;16.20;99.90
16285;DHT22;8250;52.426;9.450;2022-07-05T03:37:37;16.20;99.90
16285;DHT22;8250;52.426;9.450;2022-07-05T03:40:06;16.10;99.90
16285;DHT22;8250;52.426;9.450;2022-07-05T03:42:33;16.20;99.90
16285;DHT22;8250;52.426;9.450;2022-07-05T03:45:01;16.10;99.90
16285;DHT22;8250;52.426;9.450;2022-07-05T03:47:27;16.10;99.90
16285;DHT22;8250;52.426;9.450;2022-07-05T03:49:54;16.10;99.90
16285;DHT22;8250;52.426;9.450;2022-07-05T03:52:21;16.10;99.90
16285;DHT22;8250;52.426;9.450;2022-07-05T03:54:48;16.10;99.90
16285;DHT22;8250;52.426;9.450;2022-07-05T03:57:16;16.00;99.90
16285;DHT22;8250;52.426;9.450;2022-07-05T03:59:44;16.00;99.90
16285;DHT22;8250;52.426;9.450;2022-07-05T04:02:11;16.10;99.90
16285;DHT22;8250;52.426;9.450;2022-07-05T04:04:37;16.10;99.90
16285;DHT22;8250;52.426;9.450;2022-07-05T04:07:04;16.10;99.90
16285;DHT22;8250;52.426;9.450;2022-07-05T04:09:31;16.10;99.90
16285;DHT22;8250;52.426;9.450;2022-07-05T04:11:58;16.10;99.90
16285;DHT22;8250;52.426;9.450;2022-07-05T04:14:26;16.10;99.90
16285;DHT22;8250;52.426;9.450;2022-07-05T04:16:53;16.00;99.90
16285;DHT22;8250;52.426;9.450;2022-07-05T04:19:31;16.00;99.90
16285;DHT22;8250;52.426;9.450;2022-07-05T04:22:06;16.00;99.90
16285;DHT22;8250;52.426;9.450;2022-07-05T04:24:33;16.10;99.90
16285;DHT22;8250;52.426;9.450;2022-07-05T04:27:21;16.10;99.90
16285;DHT22;8250;52.426;9.450;2022-07-05T04:29:51;16.10;99.90
16285;DHT22;8250;52.426;9.450;2022-07-05T04:32:22;16.10;99.90
16285;DHT22;8250;52.426;9.450;2022-07-05T04:34:50;16.10;99.90
16285;DHT22;8250;52.426;9.450;2022-07-05T04:37:16;16.10;99.90
16285;DHT22;8250;52.426;9.450;2022-07-05T04:39:43;16.10;99.90
16285;DHT22;8250;52.426;9.450;2022-07-05T04:42:10;16.10;99.90
16285;DHT22;8250;52.426;9.450;2022-07-05T04:44:37;16.20;99.90
16285;DHT22;8250;52.426;9.450;2022-07-05T04:47:05;16.20;99.90
16285;DHT22;8250;52.426;9.450;2022-07-05T04:49:32;16.30;99.90
16285;DHT22;8250;52.426;9.450;2022-07-05T04:52:14;16.30;99.90
16285;DHT22;8250;52.426;9.450;2022-07-05T04:54:41;16.40;99.90
16285;DHT22;8250;52.426;9.450;2022-07-05T04:57:08;16.50;99.90
16285;DHT22;8250;52.426;9.450;2022-07-05T04:59:35;16.50;99.90
16285;DHT22;8250;52.426;9.450;2022-07-05T05:02:02;16.60;99.90
16285;DHT22;8250;52.426;9.450;2022-07-05T05:04:31;16.60;99.90
16285;DHT22;8250;52.426;9.450;2022-07-05T05:06:57;16.70;99.90
16285;DHT22;8250;52.426;9.450;2022-07-05T05:09:24;16.70;99.90
16285;DHT22;8250;52.426;9.450;2022-07-05T05:11:51;16.70;99.90
16285;DHT22;8250;52.426;9.450;2022-07-05T05:14:18;16.80;99.90
16285;DHT22;8250;52.426;9.450;2022-07-05T05:16:45;16.80;99.90
16285;DHT22;8250;52.426;9.450;2022-07-05T05:19:12;16.70;99.90
16285;DHT22;8250;52.426;9.450;2022-07-05T05:21:40;16.80;99.90
16285;DHT22;8250;52.426;9.450;2022-07-05T05:24:07;16.80;99.90
16285;DHT22;8250;52.426;9.450;2022-07-05T05:26:34;16.90;99.90
16285;DHT22;8250;52.426;9.450;2022-07-05T05:29:01;16.90;99.90
16285;DHT22;8250;52.426;9.450;2022-07-05T05:31:28;17.00;99.90
16285;DHT22;8250;52.426;9.450;2022-07-05T05:33:54;17.00;99.90
16285;DHT22;8250;52.426;9.450;2022-07-05T05:36:21;17.10;99.90
16285;DHT22;8250;52.426;9.450;2022-07-05T05:39:09;17.00;99.90
16285;DHT22;8250;52.426;9.450;2022-07-05T05:41:36;17.10;99.90
16285;DHT22;8250;52.426;9.450;2022-07-05T05:44:09;17.20;99.90
16285;DHT22;8250;52.426;9.450;2022-07-05T05:46:37;17.20;99.90
16285;DHT22;8250;52.426;9.450;2022-07-05T05:49:04;17.20;99.90
16285;DHT22;8250;52.426;9.450;2022-07-05T05:51:34;17.40;99.90
16285;DHT22;8250;52.426;9.450;2022-07-05T05:54:01;17.60;99.90
16285;DHT22;8250;52.426;9.450;2022-07-05T05:56:29;17.70;99.90
16285;DHT22;8250;52.426;9.450;2022-07-05T05:58:56;17.60;99.90
16285;DHT22;8250;52.426;9.450;2022-07-05T06:01:26;17.70;99.90
16285;DHT22;8250;52.426;9.450;2022-07-05T06:04:01;17.70;99.90
16285;DHT22;8250;52.426;9.450;2022-07-05T06:06:31;17.80;99.90
16285;DHT22;8250;52.426;9.450;2022-07-05T06:08:58;17.90;99.90
16285;DHT22;8250;52.426;9.450;2022-07-05T06:11:29;18.10;99.90
16285;DHT22;8250;52.426;9.450;2022-07-05T06:13:59;18.20;99.90
16285;DHT22;8250;52.426;9.450;2022-07-05T06:16:26;18.30;99.90
16285;DHT22;8250;52.426;9.450;2022-07-05T06:18:53;18.50;99.90
16285;DHT22;8250;52.426;9.450;2022-07-05T06:21:20;18.60;99.90
16285;DHT22;8250;52.426;9.450;2022-07-05T06:23:51;18.70;99.90
16285;DHT22;8250;52.426;9.450;2022-07-05T06:26:18;18.70;99.90
16285;DHT22;8250;52.426;9.450;2022-07-05T06:28:46;18.90;99.90
16285;DHT22;8250;52.426;9.450;2022-07-05T06:31:17;18.90;99.90
16285;DHT22;8250;52.426;9.450;2022-07-05T06:33:44;19.10;99.90
16285;DHT22;8250;52.426;9.450;2022-07-05T06:36:11;19.10;99.90
16285;DHT22;8250;52.426;9.450;2022-07-05T06:38:38;19.10;99.90
16285;DHT22;8250;52.426;9.450;2022-07-05T06:41:05;19.20;99.90
16285;DHT22;8250;52.426;9.450;2022-07-05T06:43:32;19.20;99.90
16285;DHT22;8250;52.426;9.450;2022-07-05T06:46:31;19.20;99.90
16285;DHT22;8250;52.426;9.450;2022-07-05T06:49:09;19.20;99.90
16285;DHT22;8250;52.426;9.450;2022-07-05T06:51:52;19.30;99.90
16285;DHT22;8250;52.426;9.450;2022-07-05T06:54:21;19.20;99.90
16285;DHT22;8250;52.426;9.450;2022-07-05T06:56:51;19.40;99.90
16285;DHT22;8250;52.426;9.450;2022-07-05T06:59:24;19.40;99.90
16285;DHT22;8250;52.426;9.450;2022-07-05T07:01:53;19.40;99.90
16285;DHT22;8250;52.426;9.450;2022-07-05T07:04:26;19.40;99.90
16285;DHT22;8250;52.426;9.450;2022-07-05T07:06:53;19.40;99.90
16285;DHT22;8250;52.426;9.450;2022-07-05T07:09:20;19.40;99.90
16285;DHT22;8250;52.426;9.450;2022-07-05T07:11:48;19.40;99.90
16285;DHT22;8250;52.426;9.450;2022-07-05T07:14:16;19.40;99.90
16285;DHT22;8250;52.426;9.450;2022-07-05T07:16:43;19.50;99.90
16285;DHT22;8250;52.426;9.450;2022-07-05T07:19:11;19.40;99.90
16285;DHT22;8250;52.426;9.450;2022-07-05T07:21:39;19.50;99.90
16285;DHT22;8250;52.426;9.450;2022-07-05T07:24:07;19.40;99.90
16285;DHT22;8250;52.426;9.450;2022-07-05T07:26:34;19.40;99.90
16285;DHT22;8250;52.426;9.450;2022-07-05T07:29:56;19.50;99.90
16285;DHT22;8250;52.426;9.450;2022-07-05T07:32:47;19.50;99.90
16285;DHT22;8250;52.426;9.450;2022-07-05T07:35:36;19.50;99.90
16285;DHT22;8250;52.426;9.450;2022-07-05T07:38:06;19.60;99.90
16285;DHT22;8250;52.426;9.450;2022-07-05T07:40:33;19.60;99.90
16285;DHT22;8250;52.426;9.450;2022-07-05T07:43:14;19.70;99.90
16285;DHT22;8250;52.426;9.450;2022-07-05T07:45:43;19.80;99.90
16285;DHT22;8250;52.426;9.450;2022-07-05T07:48:15;19.90;99.90
16285;DHT22;8250;52.426;9.450;2022-07-05T07:50:47;19.90;99.90
16285;DHT22;8250;52.426;9.450;2022-07-05T07:53:29;19.90;99.90
16285;DHT22;8250;52.426;9.450;2022-07-05T07:56:07;19.90;99.90
16285;DHT22;8250;52.426;9.450;2022-07-05T07:58:46;19.90;99.90
16285;DHT22;8250;52.426;9.450;2022-07-05T08:01:28;20.00;99.90
16285;DHT22;8250;52.426;9.450;2022-07-05T08:04:01;20.00;99.90
16285;DHT22;8250;52.426;9.450;2022-07-05T08:06:31;20.00;99.90
16285;DHT22;8250;52.426;9.450;2022-07-05T08:08:58;20.00;99.90
16285;DHT22;8250;52.426;9.450;2022-07-05T08:11:36;20.00;99.90
16285;DHT22;8250;52.426;9.450;2022-07-05T08:14:07;20.10;99.90
16285;DHT22;8250;52.426;9.450;2022-07-05T08:16:35;20.10;99.90
16285;DHT22;8250;52.426;9.450;2022-07-05T08:19:02;20.30;99.90
16285;DHT22;8250;52.426;9.450;2022-07-05T08:21:48;20.40;99.90
16285;DHT22;8250;52.426;9.450;2022-07-05T08:24:20;20.40;99.90
16285;DHT22;8250;52.426;9.450;2022-07-05T08:26:47;20.40;99.90
16285;DHT22;8250;52.426;9.450;2022-07-05T08:29:14;20.40;99.90
16285;DHT22;8250;52.426;9.450;2022-07-05T08:31:47;20.30;99.90
16285;DHT22;8250;52.426;9.450;2022-07-05T08:34:20;20.40;99.90
16285;DHT22;8250;52.426;9.450;2022-07-05T08:36:50;20.30;99.30
16285;DHT22;8250;52.426;9.450;2022-07-05T08:39:17;20.30;99.00
16285;DHT22;8250;52.426;9.450;2022-07-05T08:41:48;20.20;98.20
16285;DHT22;8250;52.426;9.450;2022-07-05T08:44:18;20.20;98.30
16285;DHT22;8250;52.426;9.450;2022-07-05T08:46:47;20.20;99.00
16285;DHT22;8250;52.426;9.450;2022-07-05T08:49:14;20.20;98.60
16285;DHT22;8250;52.426;9.450;2022-07-05T08:51:42;20.20;98.80
16285;DHT22;8250;52.426;9.450;2022-07-05T08:54:11;20.30;99.10
16285;DHT22;8250;52.426;9.450;2022-07-05T08:56:41;20.40;98.30
16285;DHT22;8250;52.426;9.450;2022-07-05T08:59:08;20.60;98.60
16285;DHT22;8250;52.426;9.450;2022-07-05T09:01:38;20.70;98.10
16285;DHT22;8250;52.426;9.450;2022-07-05T09:04:07;20.70;97.50
16285;DHT22;8250;52.426;9.450;2022-07-05T09:06:38;20.70;97.40
16285;DHT22;8250;52.426;9.450;2022-07-05T09:09:06;20.90;96.80
16285;DHT22;8250;52.426;9.450;2022-07-05T09:11:37;20.90;97.70
16285;DHT22;8250;52.426;9.450;2022-07-05T09:14:05;20.80;96.10
16285;DHT22;8250;52.426;9.450;2022-07-05T09:16:33;20.80;95.60
16285;DHT22;8250;52.426;9.450;2022-07-05T09:19:05;20.70;94.40
16285;DHT22;8250;52.426;9.450;2022-07-05T09:21:33;20.70;94.80
16285;DHT22;8250;52.426;9.450;2022-07-05T09:24:02;20.70;94.80
16285;DHT22;8250;52.426;9.450;2022-07-05T09:26:32;20.80;94.40
16285;DHT22;8250;52.426;9.450;2022-07-05T09:29:03;20.90;93.70
16285;DHT22;8250;52.426;9.450;2022-07-05T09:31:32;21.10;93.90
16285;DHT22;8250;52.426;9.450;2022-07-05T09:34:06;21.10;93.80
16285;DHT22;8250;52.426;9.450;2022-07-05T09:36:50;21.10;94.10
16285;DHT22;8250;52.426;9.450;2022-07-05T09:39:18;21.20;94.20
16285;DHT22;8250;52.426;9.450;2022-07-05T09:41:45;21.20;94.30
16285;DHT22;8250;52.426;9.450;2022-07-05T09:44:24;21.20;94.30
16285;DHT22;8250;52.426;9.450;2022-07-05T09:47:07;21.20;94.30
16285;DHT22;8250;52.426;9.450;2022-07-05T09:49:35;21.00;93.40
16285;DHT22;8250;52.426;9.450;2022-07-05T09:52:03;20.90;93.40
16285;DHT22;8250;52.426;9.450;2022-07-05T09:54:30;20.90;94.20
16285;DHT22;8250;52.426;9.450;2022-07-05T09:56:57;20.90;94.70
16285;DHT22;8250;52.426;9.450;2022-07-05T09:59:25;21.10;94.20
16285;DHT22;8250;52.426;9.450;2022-07-05T10:01:52;21.20;92.60
16285;DHT22;8250;52.426;9.450;2022-07-05T10:04:19;21.30;92.40
16285;DHT22;8250;52.426;9.450;2022-07-05T10:06:55;21.30;92.30
16285;DHT22;8250;52.426;9.450;2022-07-05T10:09:22;21.30;92.60
16285;DHT22;8250;52.426;9.450;2022-07-05T10:11:50;21.40;93.00
16285;DHT22;8250;52.426;9.450;2022-07-05T10:14:21;21.50;92.80
16285;DHT22;8250;52.426;9.450;2022-07-05T10:17:00;21.50;92.40
16285;DHT22;8250;52.426;9.450;2022-07-05T10:19:33;21.60;92.40
16285;DHT22;8250;52.426;9.450;2022-07-05T10:22:01;21.60;91.80
16285;DHT22;8250;52.426;9.450;2022-07-05T10:24:33;21.60;91.10
16285;DHT22;8250;52.426;9.450;2022-07-05T10:27:03;21.70;90.70
16285;DHT22;8250;52.426;9.450;2022-07-05T10:29:33;21.80;91.20
16285;DHT22;8250;52.426;9.450;2022-07-05T10:32:03;21.90;91.10
16285;DHT22;8250;52.426;9.450;2022-07-05T10:34:35;21.90;89.70
16285;DHT22;8250;52.426;9.450;2022-07-05T10:37:04;21.90;90.70
16285;DHT22;8250;52.426;9.450;2022-07-05T10:39:36;22.00;91.10
16285;DHT22;8250;52.426;9.450;2022-07-05T10:42:07;21.90;90.80
16285;DHT22;8250;52.426;9.450;2022-07-05T10:44:40;21.90;91.30
16285;DHT22;8250;52.426;9.450;2022-07-05T10:47:14;21.80;91.30
16285;DHT22;8250;52.426;9.450;2022-07-05T10:49:43;21.80;90.50
16285;DHT22;8250;52.426;9.450;2022-07-05T10:52:22;21.80;91.00
16285;DHT22;8250;52.426;9.450;2022-07-05T10:55:19;21.80;90.80
16285;DHT22;8250;52.426;9.450;2022-07-05T10:58:19;21.80;90.30
16285;DHT22;8250;52.426;9.450;2022-07-05T11:00:47;21.70;90.20
16285;DHT22;8250;52.426;9.450;2022-07-05T11:03:34;21.80;90.20
16285;DHT22;8250;52.426;9.450;2022-07-05T11:06:01;21.90;90.10
16285;DHT22;8250;52.426;9.450;2022-07-05T11:08:28;22.00;90.50
16285;DHT22;8250;52.426;9.450;2022-07-05T11:11:09;22.10;89.40
16285;DHT22;8250;52.426;9.450;2022-07-05T11:13:37;22.20;89.90
16285;DHT22;8250;52.426;9.450;2022-07-05T11:16:21;22.40;89.90
16285;DHT22;8250;52.426;9.450;2022-07-05T11:18:50;22.70;89.30
16285;DHT22;8250;52.426;9.450;2022-07-05T11:21:17;22.80;86.60
16285;DHT22;8250;52.426;9.450;2022-07-05T11:23:45;22.80;85.20
16285;DHT22;8250;52.426;9.450;2022-07-05T11:26:12;22.70;84.60
16285;DHT22;8250;52.426;9.450;2022-07-05T11:28:42;22.60;83.80
16285;DHT22;8250;52.426;9.450;2022-07-05T11:31:10;22.60;83.90
16285;DHT22;8250;52.426;9.450;2022-07-05T11:33:41;22.40;86.60
16285;DHT22;8250;52.426;9.450;2022-07-05T11:36:26;22.40;87.20
16285;DHT22;8250;52.426;9.450;2022-07-05T11:39:12;22.40;87.00
16285;DHT22;8250;52.426;9.450;2022-07-05T11:41:42;22.40;88.50
16285;DHT22;8250;52.426;9.450;2022-07-05T11:44:10;22.60;87.30
16285;DHT22;8250;52.426;9.450;2022-07-05T11:46:37;22.80;87.30
16285;DHT22;8250;52.426;9.450;2022-07-05T11:49:04;22.70;82.20
16285;DHT22;8250;52.426;9.450;2022-07-05T11:51:33;22.80;83.60
16285;DHT22;8250;52.426;9.450;2022-07-05T11:54:00;22.90;83.40
16285;DHT22;8250;52.426;9.450;2022-07-05T11:56:27;22.80;83.80
16285;DHT22;8250;52.426;9.450;2022-07-05T11:58:54;22.70;84.40
16285;DHT22;8250;52.426;9.450;2022-07-05T12:01:21;22.50;85.30
16285;DHT22;8250;52.426;9.450;2022-07-05T12:03:55;22.50;86.90
16285;DHT22;8250;52.426;9.450;2022-07-05T12:06:22;22.50;86.80
16285;DHT22;8250;52.426;9.450;2022-07-05T12:09:04;22.60;88.20
16285;DHT22;8250;52.426;9.450;2022-07-05T12:11:31;22.70;86.60
16285;DHT22;8250;52.426;9.450;2022-07-05T12:14:22;22.80;84.90
16285;DHT22;8250;52.426;9.450;2022-07-05T12:16:50;22.80;82.60
16285;DHT22;8250;52.426;9.450;2022-07-05T12:19:38;22.80;84.00
16285;DHT22;8250;52.426;9.450;2022-07-05T12:22:05;23.00;84.40
16285;DHT22;8250;52.426;9.450;2022-07-05T12:24:34;23.20;83.50
16285;DHT22;8250;52.426;9.450;2022-07-05T12:27:01;23.30;84.40
16285;DHT22;8250;52.426;9.450;2022-07-05T12:29:29;23.30;81.00
16285;DHT22;8250;52.426;9.450;2022-07-05T12:31:59;23.20;81.00
16285;DHT22;8250;52.426;9.450;2022-07-05T12:34:27;23.30;82.50
16285;DHT22;8250;52.426;9.450;2022-07-05T12:36:55;23.40;78.60
16285;DHT22;8250;52.426;9.450;2022-07-05T12:39:23;23.40;78.70
16285;DHT22;8250;52.426;9.450;2022-07-05T12:41:52;23.40;81.00
16285;DHT22;8250;52.426;9.450;2022-07-05T12:44:19;23.50;78.70
16285;DHT22;8250;52.426;9.450;2022-07-05T12:46:47;23.60;76.70
16285;DHT22;8250;52.426;9.450;2022-07-05T12:49:16;23.60;79.70
16285;DHT22;8250;52.426;9.450;2022-07-05T12:51:43;23.60;81.90
16285;DHT22;8250;52.426;9.450;2022-07-05T12:54:19;23.50;82.10
16285;DHT22;8250;52.426;9.450;2022-07-05T12:57:06;23.50;81.30
16285;DHT22;8250;52.426;9.450;2022-07-05T12:59:57;23.50;84.40
16285;DHT22;8250;52.426;9.450;2022-07-05T13:02:34;23.60;84.00
16285;DHT22;8250;52.426;9.450;2022-07-05T13:05:01;23.60;83.60
16285;DHT22;8250;52.426;9.450;2022-07-05T13:07:28;23.70;82.10
16285;DHT22;8250;52.426;9.450;2022-07-05T13:10:13;23.70;81.20
16285;DHT22;8250;52.426;9.450;2022-07-05T13:12:41;23.40;77.50
16285;DHT22;8250;52.426;9.450;2022-07-05T13:15:09;23.30;81.10
16285;DHT22;8250;52.426;9.450;2022-07-05T13:17:36;23.30;81.10
16285;DHT22;8250;52.426;9.450;2022-07-05T13:20:03;23.40;83.10
16285;DHT22;8250;52.426;9.450;2022-07-05T13:22:31;23.50;77.60
16285;DHT22;8250;52.426;9.450;2022-07-05T13:24:58;23.50;76.60
16285;DHT22;8250;52.426;9.450;2022-07-05T13:27:24;23.50;78.50
16285;DHT22;8250;52.426;9.450;2022-07-05T13:29:53;23.40;80.00
16285;DHT22;8250;52.426;9.450;2022-07-05T13:32:20;23.40;80.40
16285;DHT22;8250;52.426;9.450;2022-07-05T13:34:47;23.30;82.10
16285;DHT22;8250;52.426;9.450;2022-07-05T13:37:14;23.40;81.70
16285;DHT22;8250;52.426;9.450;2022-07-05T13:39:41;23.40;81.50
16285;DHT22;8250;52.426;9.450;2022-07-05T13:42:08;23.40;81.30
16285;DHT22;8250;52.426;9.450;2022-07-05T13:44:35;23.50;81.70
16285;DHT22;8250;52.426;9.450;2022-07-05T13:47:04;23.40;80.90
16285;DHT22;8250;52.426;9.450;2022-07-05T13:49:31;23.40;78.50
16285;DHT22;8250;52.426;9.450;2022-07-05T13:51:59;23.30;73.90
16285;DHT22;8250;52.426;9.450;2022-07-05T13:54:27;23.30;74.70
16285;DHT22;8250;52.426;9.450;2022-07-05T13:56:54;23.30;76.20
16285;DHT22;8250;52.426;9.450;2022-07-05T13:59:21;23.40;75.40
16285;DHT22;8250;52.426;9.450;2022-07-05T14:01:48;23.50;78.20
16285;DHT22;8250;52.426;9.450;2022-07-05T14:04:16;23.60;78.50
16285;DHT22;8250;52.426;9.450;2022-07-05T14:06:43;23.50;79.20
16285;DHT22;8250;52.426;9.450;2022-07-05T14:09:11;23.50;78.90
16285;DHT22;8250;52.426;9.450;2022-07-05T14:11:41;23.40;78.20
16285;DHT22;8250;52.426;9.450;2022-07-05T14:14:12;23.20;74.80
16285;DHT22;8250;52.426;9.450;2022-07-05T14:16:38;23.30;74.90
16285;DHT22;8250;52.426;9.450;2022-07-05T14:19:05;23.20;74.20
16285;DHT22;8250;52.426;9.450;2022-07-05T14:21:34;23.20;75.50
16285;DHT22;8250;52.426;9.450;2022-07-05T14:24:00;23.30;74.20
16285;DHT22;8250;52.426;9.450;2022-07-05T14:26:27;23.40;76.20
16285;DHT22;8250;52.426;9.450;2022-07-05T14:28:55;23.40;75.40
16285;DHT22;8250;52.426;9.450;2022-07-05T14:31:22;23.40;75.60
16285;DHT22;8250;52.426;9.450;2022-07-05T14:33:50;23.40;77.30
16285;DHT22;8250;52.426;9.450;2022-07-05T14:36:16;23.30;75.90
16285;DHT22;8250;52.426;9.450;2022-07-05T14:38:46;23.30;76.60
16285;DHT22;8250;52.426;9.450;2022-07-05T14:41:13;23.30;78.10
16285;DHT22;8250;52.426;9.450;2022-07-05T14:43:41;23.30;77.20
16285;DHT22;8250;52.426;9.450;2022-07-05T14:46:09;23.30;78.60
16285;DHT22;8250;52.426;9.450;2022-07-05T14:48:43;23.30;79.20
16285;DHT22;8250;52.426;9.450;2022-07-05T14:51:10;23.30;77.40
16285;DHT22;8250;52.426;9.450;2022-07-05T14:53:37;23.30;79.50
16285;DHT22;8250;52.426;9.450;2022-07-05T14:56:05;23.30;79.00
16285;DHT22;8250;52.426;9.450;2022-07-05T14:58:33;23.30;79.00
16285;DHT22;8250;52.426;9.450;2022-07-05T15:01:00;23.40;79.00
16285;DHT22;8250;52.426;9.450;2022-07-05T15:03:27;23.40;77.90
16285;DHT22;8250;52.426;9.450;2022-07-05T15:05:54;23.40;78.40
16285;DHT22;8250;52.426;9.450;2022-07-05T15:08:21;23.40;77.90
16285;DHT22;8250;52.426;9.450;2022-07-05T15:10:48;23.40;75.90
16285;DHT22;8250;52.426;9.450;2022-07-05T15:13:16;23.40;75.90
16285;DHT22;8250;52.426;9.450;2022-07-05T15:15:43;23.40;77.60
16285;DHT22;8250;52.426;9.450;2022-07-05T15:18:10;23.40;77.40
16285;DHT22;8250;52.426;9.450;2022-07-05T15:20:37;23.40;75.90
16285;DHT22;8250;52.426;9.450;2022-07-05T15:23:07;23.30;76.60
16285;DHT22;8250;52.426;9.450;2022-07-05T15:25:34;23.30;76.20
16285;DHT22;8250;52.426;9.450;2022-07-05T15:28:00;23.40;75.50
16285;DHT22;8250;52.426;9.450;2022-07-05T15:30:29;23.40;77.40
16285;DHT22;8250;52.426;9.450;2022-07-05T15:32:56;23.40;75.30
16285;DHT22;8250;52.426;9.450;2022-07-05T15:35:23;23.50;75.80
16285;DHT22;8250;52.426;9.450;2022-07-05T15:37:50;23.50;76.10
16285;DHT22;8250;52.426;9.450;2022-07-05T15:40:16;23.50;76.70
16285;DHT22;8250;52.426;9.450;2022-07-05T15:42:43;23.50;77.00
16285;DHT22;8250;52.426;9.450;2022-07-05T15:45:10;23.50;76.40
16285;DHT22;8250;52.426;9.450;2022-07-05T15:47:38;23.50;76.10
16285;DHT22;8250;52.426;9.450;2022-07-05T15:50:07;23.50;77.80
16285;DHT22;8250;52.426;9.450;2022-07-05T15:52:35;23.60;76.40
16285;DHT22;8250;52.426;9.450;2022-07-05T15:55:03;23.60;76.00
16285;DHT22;8250;52.426;9.450;2022-07-05T15:57:30;23.60;76.50
16285;DHT22;8250;52.426;9.450;2022-07-05T15:59:57;23.50;77.00